createdAt,value
2022-12-18T00:05:57.743Z,72.58
2022-12-18T00:18:28.758Z,71.95
2022-12-18T00:24:34.243Z,72.88
2022-12-18T00:30:40.399Z,72.81
2022-12-18T00:36:52.257Z,73.41
2022-12-18T00:43:02.590Z,73.63
2022-12-18T00:49:05.202Z,73.46
2022-12-18T00:55:10.668Z,73.87
2022-12-18T01:01:15.258Z,73.96
2022-12-18T01:07:31.303Z,74.00
2022-12-18T01:13:37.439Z,73.87
2022-12-18T01:19:42.615Z,74.10
2022-12-18T01:25:48.127Z,74.00
2022-12-18T01:31:58.999Z,73.28
2022-12-18T01:38:02.102Z,72.89
2022-12-18T01:44:46.864Z,72.78
2022-12-18T01:50:51.181Z,73.00
2022-12-18T01:57:06.692Z,73.20
2022-12-18T02:03:16.151Z,73.63
2022-12-18T02:09:32.737Z,73.20
2022-12-18T02:15:50.622Z,74.31
2022-12-18T02:21:55.739Z,74.22
2022-12-18T02:28:09.497Z,74.10
2022-12-18T02:34:14.795Z,74.20
2022-12-18T02:40:19.233Z,74.45
2022-12-18T02:46:33.959Z,73.91
2022-12-18T02:53:00.308Z,74.44
2022-12-18T02:59:09.791Z,74.48
2022-12-18T03:05:18.271Z,74.28
2022-12-18T03:11:40.822Z,74.21
2022-12-18T03:17:51.320Z,74.66
2022-12-18T03:23:56.781Z,74.62
2022-12-18T03:30:14.274Z,74.46
2022-12-18T03:36:20.743Z,75.62
2022-12-18T03:42:31.251Z,75.29
2022-12-18T03:48:43.747Z,74.88
2022-12-18T03:54:48.219Z,74.54
2022-12-18T04:01:02.748Z,74.75
2022-12-18T04:07:07.246Z,74.54
2022-12-18T04:13:12.681Z,74.57
2022-12-18T04:19:15.109Z,74.49
2022-12-18T04:25:20.572Z,74.37
2022-12-18T04:31:24.103Z,74.68
2022-12-18T04:37:26.526Z,74.84
2022-12-18T04:43:29.028Z,74.69
2022-12-18T04:49:31.480Z,74.37
2022-12-18T04:55:34.946Z,74.83
2022-12-18T05:01:37.519Z,75.19
2022-12-18T05:07:39.872Z,75.22
2022-12-18T05:13:48.327Z,74.94
2022-12-18T05:19:50.186Z,74.97
2022-12-18T05:26:14.625Z,75.19
2022-12-18T05:32:18.209Z,75.21
2022-12-18T05:38:24.249Z,75.26
2022-12-18T05:44:26.742Z,76.55
2022-12-18T05:50:29.192Z,76.57
2022-12-18T05:56:31.686Z,76.54
2022-12-18T06:02:36.655Z,76.44
2022-12-18T06:08:45.873Z,76.85
2022-12-18T06:14:51.235Z,77.14
2022-12-18T06:21:01.634Z,76.83
2022-12-18T06:27:06.243Z,77.44
2022-12-18T06:33:11.565Z,77.17
2022-12-18T06:39:14.038Z,76.57
2022-12-18T06:45:17.525Z,76.82
2022-12-18T06:51:25.996Z,76.60
2022-12-18T06:57:30.413Z,76.33
2022-12-18T07:03:35.962Z,75.88
2022-12-18T07:09:40.423Z,76.00
2022-12-18T07:15:44.628Z,76.05
2022-12-18T07:28:19.988Z,74.85
2022-12-18T07:34:27.688Z,75.70
2022-12-18T07:40:31.400Z,74.80
2022-12-18T07:46:34.466Z,75.76
2022-12-18T07:52:41.847Z,75.19
2022-12-18T07:58:55.387Z,75.85
2022-12-18T08:05:00.334Z,76.58
2022-12-18T08:11:07.392Z,76.06
2022-12-18T08:17:09.835Z,76.28
2022-12-18T08:23:12.292Z,76.87
2022-12-18T08:29:21.353Z,76.49
2022-12-18T08:35:25.478Z,75.14
2022-12-18T08:41:41.016Z,74.43
2022-12-18T08:47:45.159Z,76.46
2022-12-18T08:53:57.475Z,76.15
2022-12-18T09:00:14.198Z,74.56
2022-12-18T09:06:21.824Z,74.00
2022-12-18T09:12:29.251Z,74.47
2022-12-18T09:18:51.331Z,74.22
2022-12-18T09:25:06.372Z,73.83
2022-12-18T09:31:15.798Z,73.28
2022-12-18T09:38:51.885Z,72.54
2022-12-18T09:45:55.244Z,72.55
2022-12-18T09:51:40.748Z,73.04
2022-12-18T09:57:51.260Z,72.60
2022-12-18T10:03:57.348Z,72.47
2022-12-18T10:10:12.274Z,73.68
2022-12-18T10:16:21.787Z,72.51
2022-12-18T10:22:41.293Z,73.12
2022-12-18T10:28:44.890Z,72.21
2022-12-18T10:34:59.831Z,71.62
2022-12-18T10:41:24.888Z,72.54
2022-12-18T10:47:30.598Z,71.11
2022-12-18T10:53:36.418Z,71.66
2022-12-18T10:59:59.269Z,72.53
2022-12-18T11:06:10.785Z,71.10
2022-12-18T11:12:25.297Z,71.47
2022-12-18T11:18:40.113Z,71.94
2022-12-18T11:31:32.495Z,71.56
2022-12-18T11:37:40.303Z,71.70
2022-12-18T11:43:54.870Z,71.09
2022-12-18T11:50:08.870Z,71.02
2022-12-18T11:56:34.050Z,71.16
2022-12-18T12:03:10.625Z,71.41
2022-12-18T12:09:55.244Z,71.75
2022-12-18T12:16:05.784Z,72.13
2022-12-18T12:23:07.233Z,71.68
2022-12-18T12:29:45.015Z,71.34
2022-12-18T12:36:02.611Z,71.50
2022-12-18T12:42:40.439Z,71.24
2022-12-18T12:48:57.702Z,71.28
2022-12-18T12:55:02.151Z,72.55
2022-12-18T13:01:47.099Z,72.89
2022-12-18T13:08:09.840Z,71.89
2022-12-18T13:14:35.805Z,71.68
2022-12-18T13:20:53.621Z,71.76
2022-12-18T13:27:06.301Z,71.94
2022-12-18T13:33:18.378Z,72.40
2022-12-18T13:39:29.980Z,72.54
2022-12-18T13:45:44.710Z,72.26
2022-12-18T13:51:52.869Z,71.92
2022-12-18T13:58:06.391Z,72.64
2022-12-18T14:04:17.246Z,72.67
2022-12-18T14:10:45.583Z,72.43
2022-12-18T14:16:45.001Z,71.96
2022-12-18T14:22:50.376Z,72.29
2022-12-18T14:28:52.868Z,73.49
2022-12-18T14:34:56.324Z,74.39
2022-12-18T14:41:02.803Z,73.55
2022-12-18T14:47:05.278Z,73.63
2022-12-18T14:53:10.720Z,73.53
2022-12-18T14:59:23.964Z,75.07
2022-12-18T15:05:33.703Z,73.64
2022-12-18T15:11:42.197Z,73.21
2022-12-18T15:17:44.633Z,73.68
2022-12-18T15:23:53.119Z,73.62
2022-12-18T15:30:25.717Z,74.02
2022-12-18T15:36:32.560Z,73.88
2022-12-18T15:42:53.684Z,74.02
2022-12-18T15:49:02.534Z,73.88
2022-12-18T15:55:25.688Z,73.54
2022-12-18T16:01:39.577Z,73.40
2022-12-18T16:07:59.591Z,72.79
2022-12-18T16:14:02.237Z,72.97
2022-12-18T16:20:04.728Z,72.92
2022-12-18T16:26:16.283Z,73.40
2022-12-18T16:32:21.652Z,73.67
2022-12-18T16:38:26.000Z,73.34
2022-12-18T16:44:32.221Z,73.50
2022-12-18T16:50:39.013Z,73.93
2022-12-18T16:56:43.590Z,74.34
2022-12-18T17:02:52.136Z,73.76
2022-12-18T17:09:02.560Z,74.86
2022-12-18T17:15:07.418Z,75.09
2022-12-18T17:21:11.554Z,74.70
2022-12-18T17:27:18.999Z,75.48
2022-12-18T17:33:30.569Z,75.16
2022-12-18T17:39:59.558Z,75.06
2022-12-18T17:46:06.588Z,75.15
2022-12-18T17:52:15.997Z,75.37
2022-12-18T17:58:21.514Z,74.94
2022-12-18T18:04:23.994Z,74.51
2022-12-18T18:10:26.429Z,74.51
2022-12-18T18:16:51.040Z,74.63
2022-12-18T18:23:07.837Z,75.23
2022-12-18T18:29:26.953Z,74.91
2022-12-18T18:42:03.338Z,74.99
2022-12-18T18:48:10.075Z,74.66
2022-12-18T18:54:20.890Z,75.09
2022-12-18T19:00:27.763Z,74.89
2022-12-18T19:06:42.099Z,73.83
2022-12-18T19:13:05.592Z,74.27
2022-12-18T19:19:18.091Z,72.04
2022-12-18T19:25:28.158Z,72.65
2022-12-18T19:31:50.244Z,72.40
2022-12-18T19:37:57.681Z,72.41
2022-12-18T19:44:20.305Z,72.25
2022-12-18T19:50:22.658Z,72.49
2022-12-18T19:56:27.144Z,72.66
2022-12-18T20:03:02.440Z,70.44
2022-12-18T20:09:15.710Z,71.46
2022-12-18T20:15:46.653Z,70.71
2022-12-18T20:21:56.299Z,70.93
2022-12-18T20:28:10.597Z,70.41
2022-12-18T20:34:13.361Z,69.76
2022-12-18T20:40:33.273Z,69.52
2022-12-18T20:47:59.786Z,69.41
2022-12-18T20:53:30.175Z,69.72
2022-12-18T20:59:37.081Z,70.57
2022-12-18T21:05:41.964Z,70.34
2022-12-18T21:12:17.584Z,69.95
2022-12-18T21:18:20.121Z,70.22
2022-12-18T21:24:37.850Z,69.79
2022-12-18T21:30:59.081Z,69.33
2022-12-18T21:37:08.404Z,69.33
2022-12-18T21:43:29.124Z,69.68
2022-12-18T21:49:40.279Z,70.82
2022-12-18T21:55:48.119Z,70.95
2022-12-18T22:02:01.730Z,70.22
2022-12-18T22:08:16.366Z,70.02
2022-12-18T22:14:23.776Z,69.38
2022-12-18T22:20:34.065Z,69.85
2022-12-18T22:26:45.245Z,69.72
2022-12-18T22:32:59.009Z,70.43
2022-12-18T22:39:26.747Z,69.38
2022-12-18T22:46:03.082Z,70.05
2022-12-18T22:52:10.739Z,70.39
2022-12-18T22:58:23.628Z,69.31
2022-12-18T23:04:49.064Z,69.23
2022-12-18T23:11:04.255Z,69.55
2022-12-18T23:17:14.448Z,69.91
2022-12-18T23:30:12.207Z,70.66
2022-12-18T23:36:24.480Z,70.65
2022-12-18T23:42:58.002Z,68.81
2022-12-18T23:49:06.503Z,69.94
2022-12-18T23:55:15.942Z,70.11
